sensor_id;sensor_type;location;lat;lon;timestamp;pressure;altitude;pressure_sealevel;temperature;humidity
19590;BME280;12231;42.782;23.388;2023-04-01T00:00:28;94730.84;;;9.11;97.78
19590;BME280;12231;42.782;23.388;2023-04-01T00:02:53;94726.09;;;9.18;97.02
19590;BME280;12231;42.782;23.388;2023-04-01T00:05:19;94717.56;;;9.17;96.82
19590;BME280;12231;42.782;23.388;2023-04-01T00:07:45;94719.84;;;9.22;96.38
19590;BME280;12231;42.782;23.388;2023-04-01T00:10:12;94732.47;;;9.25;95.94
19590;BME280;12231;42.782;23.388;2023-04-01T00:12:38;94724.97;;;9.34;95.91
19590;BME280;12231;42.782;23.388;2023-04-01T00:15:10;94719.06;;;9.45;95.66
19590;BME280;12231;42.782;23.388;2023-04-01T00:17:36;94713.28;;;9.54;95.39
19590;BME280;12231;42.782;23.388;2023-04-01T00:20:02;94712.84;;;9.60;94.73
19590;BME280;12231;42.782;23.388;2023-04-01T00:22:28;94708.09;;;9.66;94.58
19590;BME280;12231;42.782;23.388;2023-04-01T00:24:54;94700.78;;;9.73;94.20
19590;BME280;12231;42.782;23.388;2023-04-01T00:27:20;94706.31;;;9.80;94.35
19590;BME280;12231;42.782;23.388;2023-04-01T00:29:46;94694.78;;;9.85;94.04
19590;BME280;12231;42.782;23.388;2023-04-01T00:32:13;94699.63;;;9.77;93.25
19590;BME280;12231;42.782;23.388;2023-04-01T00:34:39;94698.59;;;9.43;96.09
19590;BME280;12231;42.782;23.388;2023-04-01T00:37:05;94705.03;;;9.61;96.02
19590;BME280;12231;42.782;23.388;2023-04-01T00:39:31;94700.16;;;9.46;96.32
19590;BME280;12231;42.782;23.388;2023-04-01T00:41:58;94695.91;;;9.57;96.66
19590;BME280;12231;42.782;23.388;2023-04-01T00:44:27;94682.44;;;9.54;96.44
19590;BME280;12231;42.782;23.388;2023-04-01T00:46:52;94681.38;;;9.56;95.12
19590;BME280;12231;42.782;23.388;2023-04-01T00:49:21;94671.97;;;9.32;95.91
19590;BME280;12231;42.782;23.388;2023-04-01T00:51:50;94664.59;;;9.27;95.45
19590;BME280;12231;42.782;23.388;2023-04-01T00:54:17;94657.28;;;8.73;100.00
19590;BME280;12231;42.782;23.388;2023-04-01T00:57:00;94659.75;;;8.74;100.00
19590;BME280;12231;42.782;23.388;2023-04-01T00:59:30;94660.97;;;8.94;100.00
19590;BME280;12231;42.782;23.388;2023-04-01T01:01:57;94659.81;;;8.98;100.00
19590;BME280;12231;42.782;23.388;2023-04-01T01:04:26;94656.84;;;8.79;100.00
19590;BME280;12231;42.782;23.388;2023-04-01T01:21:02;94648.88;;;8.46;100.00
19590;BME280;12231;42.782;23.388;2023-04-01T01:37:10;94633.03;;;7.87;100.00
19590;BME280;12231;42.782;23.388;2023-04-01T01:39:38;94632.16;;;7.74;100.00
19590;BME280;12231;42.782;23.388;2023-04-01T01:42:08;94633.84;;;7.75;100.00
19590;BME280;12231;42.782;23.388;2023-04-01T01:44:35;94628.28;;;7.69;100.00
19590;BME280;12231;42.782;23.388;2023-04-01T01:47:03;94633.41;;;7.42;100.00
19590;BME280;12231;42.782;23.388;2023-04-01T01:49:29;94618.69;;;7.58;100.00
19590;BME280;12231;42.782;23.388;2023-04-01T01:51:57;94620.03;;;7.51;100.00
19590;BME280;12231;42.782;23.388;2023-04-01T01:54:23;94620.38;;;7.45;100.00
19590;BME280;12231;42.782;23.388;2023-04-01T01:56:51;94620.72;;;7.53;100.00
19590;BME280;12231;42.782;23.388;2023-04-01T01:59:22;94625.19;;;7.64;100.00
19590;BME280;12231;42.782;23.388;2023-04-01T02:01:51;94622.81;;;7.61;100.00
19590;BME280;12231;42.782;23.388;2023-04-01T02:04:19;94621.56;;;7.54;100.00
19590;BME280;12231;42.782;23.388;2023-04-01T02:06:50;94612.91;;;7.42;100.00
19590;BME280;12231;42.782;23.388;2023-04-01T02:09:19;94618.63;;;7.33;100.00
19590;BME280;12231;42.782;23.388;2023-04-01T02:14:22;94602.94;;;7.64;100.00
19590;BME280;12231;42.782;23.388;2023-04-01T02:17:09;94601.97;;;7.53;100.00
19590;BME280;12231;42.782;23.388;2023-04-01T02:19:39;94603.38;;;7.71;100.00
19590;BME280;12231;42.782;23.388;2023-04-01T02:22:09;94604.81;;;7.87;100.00
19590;BME280;12231;42.782;23.388;2023-04-01T02:24:36;94607.09;;;7.92;100.00
19590;BME280;12231;42.782;23.388;2023-04-01T02:27:03;94607.63;;;8.09;100.00
19590;BME280;12231;42.782;23.388;2023-04-01T02:29:29;94603.53;;;8.19;100.00
19590;BME280;12231;42.782;23.388;2023-04-01T02:31:55;94596.69;;;8.32;100.00
19590;BME280;12231;42.782;23.388;2023-04-01T02:34:22;94597.91;;;8.40;100.00
19590;BME280;12231;42.782;23.388;2023-04-01T02:36:49;94598.31;;;8.46;100.00
19590;BME280;12231;42.782;23.388;2023-04-01T02:39:15;94598.72;;;8.53;100.00
19590;BME280;12231;42.782;23.388;2023-04-01T02:41:43;94601.38;;;8.64;100.00
19590;BME280;12231;42.782;23.388;2023-04-01T02:44:10;94607.75;;;8.71;100.00
19590;BME280;12231;42.782;23.388;2023-04-01T02:46:36;94617.59;;;8.77;100.00
19590;BME280;12231;42.782;23.388;2023-04-01T02:49:01;94613.72;;;8.71;100.00
19590;BME280;12231;42.782;23.388;2023-04-01T02:51:27;94618.53;;;8.76;100.00
19590;BME280;12231;42.782;23.388;2023-04-01T02:53:52;94624.81;;;8.84;100.00
19590;BME280;12231;42.782;23.388;2023-04-01T02:56:17;94629.63;;;8.89;100.00
19590;BME280;12231;42.782;23.388;2023-04-01T02:58:44;94630.03;;;8.83;100.00
19590;BME280;12231;42.782;23.388;2023-04-01T03:01:10;94633.81;;;8.90;100.00
19590;BME280;12231;42.782;23.388;2023-04-01T03:03:35;94636.91;;;8.95;100.00
19590;BME280;12231;42.782;23.388;2023-04-01T03:06:08;94631.47;;;8.99;100.00
19590;BME280;12231;42.782;23.388;2023-04-01T03:08:34;94626.81;;;9.04;100.00
19590;BME280;12231;42.782;23.388;2023-04-01T03:10:59;94626.41;;;8.98;100.00
19590;BME280;12231;42.782;23.388;2023-04-01T03:13:25;94631.75;;;8.95;100.00
19590;BME280;12231;42.782;23.388;2023-04-01T03:15:50;94631.84;;;9.06;100.00
19590;BME280;12231;42.782;23.388;2023-04-01T03:18:16;94623.22;;;9.07;100.00
19590;BME280;12231;42.782;23.388;2023-04-01T03:20:41;94621.38;;;9.09;100.00
19590;BME280;12231;42.782;23.388;2023-04-01T03:23:08;94634.22;;;9.09;100.00
19590;BME280;12231;42.782;23.388;2023-04-01T03:25:33;94633.78;;;9.15;100.00
19590;BME280;12231;42.782;23.388;2023-04-01T03:27:59;94632.22;;;9.25;100.00
19590;BME280;12231;42.782;23.388;2023-04-01T03:30:25;94633.13;;;9.24;100.00
19590;BME280;12231;42.782;23.388;2023-04-01T03:32:50;94626.84;;;9.28;100.00
19590;BME280;12231;42.782;23.388;2023-04-01T03:35:16;94620.94;;;9.15;100.00
19590;BME280;12231;42.782;23.388;2023-04-01T03:37:41;94622.56;;;9.16;100.00
19590;BME280;12231;42.782;23.388;2023-04-01T03:40:07;94619.25;;;9.26;100.00
19590;BME280;12231;42.782;23.388;2023-04-01T03:42:33;94615.00;;;9.38;100.00
19590;BME280;12231;42.782;23.388;2023-04-01T03:44:58;94613.63;;;9.45;100.00
19590;BME280;12231;42.782;23.388;2023-04-01T03:47:24;94617.47;;;9.39;100.00
19590;BME280;12231;42.782;23.388;2023-04-01T03:49:49;94606.91;;;9.31;100.00
19590;BME280;12231;42.782;23.388;2023-04-01T03:52:15;94594.44;;;9.38;100.00
19590;BME280;12231;42.782;23.388;2023-04-01T03:54:40;94578.56;;;9.44;100.00
19590;BME280;12231;42.782;23.388;2023-04-01T03:57:06;94576.84;;;9.55;100.00
19590;BME280;12231;42.782;23.388;2023-04-01T03:59:31;94567.88;;;9.61;100.00
19590;BME280;12231;42.782;23.388;2023-04-01T04:01:57;94555.06;;;9.72;100.00
19590;BME280;12231;42.782;23.388;2023-04-01T04:04:22;94551.19;;;9.77;100.00
19590;BME280;12231;42.782;23.388;2023-04-01T04:06:48;94550.66;;;9.85;100.00
19590;BME280;12231;42.782;23.388;2023-04-01T04:09:13;94530.56;;;9.90;100.00
19590;BME280;12231;42.782;23.388;2023-04-01T04:11:39;94517.09;;;9.98;100.00
19590;BME280;12231;42.782;23.388;2023-04-01T04:14:04;94512.09;;;10.07;100.00
19590;BME280;12231;42.782;23.388;2023-04-01T04:16:30;94508.75;;;10.18;100.00
19590;BME280;12231;42.782;23.388;2023-04-01T04:18:56;94503.72;;;10.27;99.21
19590;BME280;12231;42.782;23.388;2023-04-01T04:21:21;94495.50;;;10.44;99.51
19590;BME280;12231;42.782;23.388;2023-04-01T04:23:46;94484.75;;;10.61;99.90
19590;BME280;12231;42.782;23.388;2023-04-01T04:26:14;94490.56;;;10.74;99.24
19590;BME280;12231;42.782;23.388;2023-04-01T04:28:40;94482.47;;;10.79;97.58
19590;BME280;12231;42.782;23.388;2023-04-01T04:31:06;94475.91;;;10.86;96.27
19590;BME280;12231;42.782;23.388;2023-04-01T04:33:33;94463.38;;;10.92;95.90
19590;BME280;12231;42.782;23.388;2023-04-01T04:35:59;94462.25;;;11.06;96.68
19590;BME280;12231;42.782;23.388;2023-04-01T04:38:26;94453.94;;;10.60;97.22
19590;BME280;12231;42.782;23.388;2023-04-01T04:40:51;94450.56;;;10.15;100.00
19590;BME280;12231;42.782;23.388;2023-04-01T04:43:18;94436.53;;;10.30;99.67
19590;BME280;12231;42.782;23.388;2023-04-01T04:45:44;94441.09;;;10.49;98.91
19590;BME280;12231;42.782;23.388;2023-04-01T04:48:10;94436.53;;;10.30;100.00
19590;BME280;12231;42.782;23.388;2023-04-01T04:50:39;94432.53;;;10.04;100.00
19590;BME280;12231;42.782;23.388;2023-04-01T04:53:05;94442.41;;;10.21;100.00
19590;BME280;12231;42.782;23.388;2023-04-01T04:55:31;94436.72;;;10.05;100.00
19590;BME280;12231;42.782;23.388;2023-04-01T04:57:56;94448.75;;;9.94;100.00
19590;BME280;12231;42.782;23.388;2023-04-01T05:00:21;94446.88;;;9.62;100.00
19590;BME280;12231;42.782;23.388;2023-04-01T05:02:47;94456.81;;;9.67;100.00
19590;BME280;12231;42.782;23.388;2023-04-01T05:05:12;94456.53;;;8.90;100.00
19590;BME280;12231;42.782;23.388;2023-04-01T05:07:38;94445.13;;;8.94;100.00
19590;BME280;12231;42.782;23.388;2023-04-01T05:10:03;94428.38;;;9.12;100.00
19590;BME280;12231;42.782;23.388;2023-04-01T05:12:29;94411.75;;;9.39;100.00
19590;BME280;12231;42.782;23.388;2023-04-01T05:14:54;94411.53;;;9.53;100.00
19590;BME280;12231;42.782;23.388;2023-04-01T05:17:20;94410.28;;;9.70;100.00
19590;BME280;12231;42.782;23.388;2023-04-01T05:19:45;94410.28;;;9.70;100.00
19590;BME280;12231;42.782;23.388;2023-04-01T05:22:11;94419.19;;;9.77;100.00
19590;BME280;12231;42.782;23.388;2023-04-01T05:24:36;94417.09;;;9.82;100.00
19590;BME280;12231;42.782;23.388;2023-04-01T05:27:02;94427.38;;;9.82;100.00
19590;BME280;12231;42.782;23.388;2023-04-01T05:29:27;94420.09;;;9.76;100.00
19590;BME280;12231;42.782;23.388;2023-04-01T05:31:53;94417.25;;;11.10;100.00
19590;BME280;12231;42.782;23.388;2023-04-01T05:34:18;94417.31;;;11.40;100.00
19590;BME280;12231;42.782;23.388;2023-04-01T05:36:44;94413.56;;;11.44;100.00
19590;BME280;12231;42.782;23.388;2023-04-01T05:39:09;94424.56;;;12.08;98.54
19590;BME280;12231;42.782;23.388;2023-04-01T05:41:36;94420.91;;;13.37;90.65
19590;BME280;12231;42.782;23.388;2023-04-01T05:44:01;94440.13;;;14.19;82.57
19590;BME280;12231;42.782;23.388;2023-04-01T05:46:27;94440.16;;;14.46;77.86
19590;BME280;12231;42.782;23.388;2023-04-01T05:48:52;94431.31;;;14.39;75.39
19590;BME280;12231;42.782;23.388;2023-04-01T05:51:18;94428.03;;;14.74;75.42
19590;BME280;12231;42.782;23.388;2023-04-01T05:53:43;94423.22;;;15.41;72.08
19590;BME280;12231;42.782;23.388;2023-04-01T05:56:08;94412.19;;;16.67;69.05
19590;BME280;12231;42.782;23.388;2023-04-01T05:58:37;94388.13;;;17.71;62.19
19590;BME280;12231;42.782;23.388;2023-04-01T06:01:05;94383.44;;;18.84;58.98
19590;BME280;12231;42.782;23.388;2023-04-01T06:03:31;94368.66;;;19.75;53.24
19590;BME280;12231;42.782;23.388;2023-04-01T06:05:57;94371.81;;;20.22;52.71
19590;BME280;12231;42.782;23.388;2023-04-01T06:08:24;94380.97;;;19.44;51.25
19590;BME280;12231;42.782;23.388;2023-04-01T06:10:55;94382.56;;;18.06;55.78
19590;BME280;12231;42.782;23.388;2023-04-01T06:13:40;94390.31;;;18.77;54.47
19590;BME280;12231;42.782;23.388;2023-04-01T06:22:52;94380.16;;;19.21;54.72
19590;BME280;12231;42.782;23.388;2023-04-01T06:25:36;94376.22;;;20.21;53.90
19590;BME280;12231;42.782;23.388;2023-04-01T06:36:42;94364.81;;;20.87;51.74
19590;BME280;12231;42.782;23.388;2023-04-01T06:42:43;94354.78;;;21.05;51.93
19590;BME280;12231;42.782;23.388;2023-04-01T06:45:28;94356.34;;;20.85;52.83
19590;BME280;12231;42.782;23.388;2023-04-01T06:56:17;94340.94;;;20.61;51.46
19590;BME280;12231;42.782;23.388;2023-04-01T06:58:50;94327.19;;;20.59;51.25
19590;BME280;12231;42.782;23.388;2023-04-01T07:01:25;94333.09;;;20.47;51.36
19590;BME280;12231;42.782;23.388;2023-04-01T07:03:57;94328.94;;;20.67;52.95
19590;BME280;12231;42.782;23.388;2023-04-01T07:06:35;94325.38;;;19.72;52.78
19590;BME280;12231;42.782;23.388;2023-04-01T07:09:06;94333.47;;;19.63;52.86
19590;BME280;12231;42.782;23.388;2023-04-01T07:11:35;94327.53;;;19.83;52.02
19590;BME280;12231;42.782;23.388;2023-04-01T07:14:22;94320.41;;;19.77;51.48
19590;BME280;12231;42.782;23.388;2023-04-01T07:19:39;94313.81;;;19.81;49.09
19590;BME280;12231;42.782;23.388;2023-04-01T07:24:44;94324.09;;;19.23;52.35
19590;BME280;12231;42.782;23.388;2023-04-01T07:27:13;94331.41;;;18.52;52.70
19590;BME280;12231;42.782;23.388;2023-04-01T07:29:39;94328.91;;;18.04;53.95
19590;BME280;12231;42.782;23.388;2023-04-01T07:32:15;94333.88;;;16.94;58.83
19590;BME280;12231;42.782;23.388;2023-04-01T07:37:31;94323.19;;;16.56;62.87
19590;BME280;12231;42.782;23.388;2023-04-01T07:43:01;94318.56;;;16.41;62.50
19590;BME280;12231;42.782;23.388;2023-04-01T07:45:38;94314.03;;;16.43;64.26
19590;BME280;12231;42.782;23.388;2023-04-01T07:48:16;94318.03;;;16.64;63.98
19590;BME280;12231;42.782;23.388;2023-04-01T07:51:00;94307.63;;;16.72;62.61
19590;BME280;12231;42.782;23.388;2023-04-01T07:53:32;94300.28;;;16.59;63.57
19590;BME280;12231;42.782;23.388;2023-04-01T07:56:15;94307.47;;;16.73;63.66
19590;BME280;12231;42.782;23.388;2023-04-01T08:09:56;94300.44;;;16.58;60.78
19590;BME280;12231;42.782;23.388;2023-04-01T08:12:35;94297.84;;;16.58;60.42
19590;BME280;12231;42.782;23.388;2023-04-01T08:15:23;94293.81;;;16.71;60.38
19590;BME280;12231;42.782;23.388;2023-04-01T08:20:46;94275.78;;;17.02;58.94
19590;BME280;12231;42.782;23.388;2023-04-01T08:23:19;94275.59;;;16.95;56.99
19590;BME280;12231;42.782;23.388;2023-04-01T08:26:12;94266.81;;;16.88;57.99
19590;BME280;12231;42.782;23.388;2023-04-01T08:28:51;94266.00;;;16.88;58.68
19590;BME280;12231;42.782;23.388;2023-04-01T08:34:16;94253.63;;;16.82;59.38
19590;BME280;12231;42.782;23.388;2023-04-01T08:36:50;94239.31;;;16.86;58.57
19590;BME280;12231;42.782;23.388;2023-04-01T08:39:38;94228.91;;;17.02;59.88
19590;BME280;12231;42.782;23.388;2023-04-01T08:53:32;94205.41;;;20.84;48.89
19590;BME280;12231;42.782;23.388;2023-04-01T08:56:14;94191.53;;;22.48;45.52
19590;BME280;12231;42.782;23.388;2023-04-01T09:07:17;94188.44;;;18.84;54.31
19590;BME280;12231;42.782;23.388;2023-04-01T09:13:08;94185.03;;;19.65;51.33
19590;BME280;12231;42.782;23.388;2023-04-01T09:15:57;94183.72;;;19.54;50.65
19590;BME280;12231;42.782;23.388;2023-04-01T09:34:25;94164.31;;;18.97;52.12
19590;BME280;12231;42.782;23.388;2023-04-01T09:37:18;94164.72;;;18.71;53.71
19590;BME280;12231;42.782;23.388;2023-04-01T09:42:47;94153.34;;;19.01;56.90
19590;BME280;12231;42.782;23.388;2023-04-01T09:48:00;94126.31;;;18.94;53.33
19590;BME280;12231;42.782;23.388;2023-04-01T09:51:17;94131.56;;;18.94;53.13
19590;BME280;12231;42.782;23.388;2023-04-01T10:19:07;94066.75;;;24.50;36.94
19590;BME280;12231;42.782;23.388;2023-04-01T10:24:48;94068.69;;;22.37;42.29
19590;BME280;12231;42.782;23.388;2023-04-01T10:41:14;94058.34;;;20.17;45.13
19590;BME280;12231;42.782;23.388;2023-04-01T10:54:47;94048.28;;;18.03;51.50
19590;BME280;12231;42.782;23.388;2023-04-01T11:23:13;94014.84;;;17.61;56.14
19590;BME280;12231;42.782;23.388;2023-04-01T11:33:29;94037.63;;;17.90;55.84
19590;BME280;12231;42.782;23.388;2023-04-01T11:39:07;94081.00;;;17.83;57.09
19590;BME280;12231;42.782;23.388;2023-04-01T11:47:52;94201.91;;;16.47;69.86
19590;BME280;12231;42.782;23.388;2023-04-01T11:50:34;94228.38;;;15.92;78.53
19590;BME280;12231;42.782;23.388;2023-04-01T12:09:22;94315.44;;;12.25;100.00
19590;BME280;12231;42.782;23.388;2023-04-01T12:12:20;94319.69;;;12.45;100.00
19590;BME280;12231;42.782;23.388;2023-04-01T12:15:13;94302.00;;;12.40;100.00
19590;BME280;12231;42.782;23.388;2023-04-01T12:17:59;94286.66;;;12.58;100.00
19590;BME280;12231;42.782;23.388;2023-04-01T12:37:59;94299.47;;;13.53;100.00
19590;BME280;12231;42.782;23.388;2023-04-01T12:51:08;94297.34;;;14.40;100.00
19590;BME280;12231;42.782;23.388;2023-04-01T12:53:44;94296.97;;;14.52;100.00
19590;BME280;12231;42.782;23.388;2023-04-01T13:02:01;94243.78;;;14.31;100.00
19590;BME280;12231;42.782;23.388;2023-04-01T13:17:52;94253.63;;;14.00;100.00
19590;BME280;12231;42.782;23.388;2023-04-01T13:20:40;94242.00;;;14.04;100.00
19590;BME280;12231;42.782;23.388;2023-04-01T13:25:54;94213.88;;;14.54;100.00
19590;BME280;12231;42.782;23.388;2023-04-01T13:31:14;94206.44;;;14.76;96.53
19590;BME280;12231;42.782;23.388;2023-04-01T13:36:52;94198.28;;;15.74;93.25
19590;BME280;12231;42.782;23.388;2023-04-01T13:42:29;94193.50;;;16.03;86.00
19590;BME280;12231;42.782;23.388;2023-04-01T13:45:22;94184.19;;;15.92;85.57
19590;BME280;12231;42.782;23.388;2023-04-01T13:54:00;94177.72;;;15.96;85.10
19590;BME280;12231;42.782;23.388;2023-04-01T14:00:15;94180.25;;;15.72;82.17
19590;BME280;12231;42.782;23.388;2023-04-01T14:11:13;94171.66;;;15.80;81.52
19590;BME280;12231;42.782;23.388;2023-04-01T14:13:52;94163.34;;;15.76;80.47
19590;BME280;12231;42.782;23.388;2023-04-01T14:16:39;94161.97;;;16.06;79.80
19590;BME280;12231;42.782;23.388;2023-04-01T14:19:17;94145.59;;;16.21;79.05
19590;BME280;12231;42.782;23.388;2023-04-01T14:34:54;94114.88;;;16.41;78.38
19590;BME280;12231;42.782;23.388;2023-04-01T14:43:14;94103.97;;;16.13;79.50
19590;BME280;12231;42.782;23.388;2023-04-01T14:46:10;94111.31;;;16.18;79.04
19590;BME280;12231;42.782;23.388;2023-04-01T14:49:20;94099.59;;;16.38;79.72
19590;BME280;12231;42.782;23.388;2023-04-01T14:51:48;94104.97;;;16.28;76.77
19590;BME280;12231;42.782;23.388;2023-04-01T14:54:19;94108.88;;;16.16;77.47
19590;BME280;12231;42.782;23.388;2023-04-01T14:57:46;94106.91;;;16.42;76.64
19590;BME280;12231;42.782;23.388;2023-04-01T14:59:51;94100.44;;;16.55;76.57
19590;BME280;12231;42.782;23.388;2023-04-01T15:03:11;94115.06;;;16.48;75.20
19590;BME280;12231;42.782;23.388;2023-04-01T15:05:35;94117.44;;;15.85;76.72
19590;BME280;12231;42.782;23.388;2023-04-01T15:18:30;94104.97;;;16.12;77.42
19590;BME280;12231;42.782;23.388;2023-04-01T15:23:40;94113.25;;;16.08;78.36
19590;BME280;12231;42.782;23.388;2023-04-01T15:29:29;94107.53;;;15.88;76.35
19590;BME280;12231;42.782;23.388;2023-04-01T15:32:00;94102.34;;;15.96;75.70
19590;BME280;12231;42.782;23.388;2023-04-01T15:45:29;94106.78;;;15.46;83.52
19590;BME280;12231;42.782;23.388;2023-04-01T15:51:19;94277.75;;;14.01;85.43
19590;BME280;12231;42.782;23.388;2023-04-01T15:54:06;94277.38;;;13.13;87.74
19590;BME280;12231;42.782;23.388;2023-04-01T15:56:46;94294.41;;;11.90;91.85
19590;BME280;12231;42.782;23.388;2023-04-01T16:15:48;94340.66;;;9.94;100.00
19590;BME280;12231;42.782;23.388;2023-04-01T16:21:43;94358.81;;;9.70;100.00
19590;BME280;12231;42.782;23.388;2023-04-01T16:26:53;94354.03;;;10.10;100.00
19590;BME280;12231;42.782;23.388;2023-04-01T16:29:38;94366.09;;;10.09;100.00
19590;BME280;12231;42.782;23.388;2023-04-01T16:37:34;94380.25;;;10.15;100.00
19590;BME280;12231;42.782;23.388;2023-04-01T16:40:34;94385.38;;;10.26;100.00
19590;BME280;12231;42.782;23.388;2023-04-01T16:43:19;94372.84;;;9.99;100.00
19590;BME280;12231;42.782;23.388;2023-04-01T16:51:54;94384.06;;;9.87;100.00
19590;BME280;12231;42.782;23.388;2023-04-01T16:54:45;94400.81;;;9.82;100.00
19590;BME280;12231;42.782;23.388;2023-04-01T17:00:22;94383.94;;;9.44;100.00
19590;BME280;12231;42.782;23.388;2023-04-01T17:08:28;94405.66;;;10.08;100.00
19590;BME280;12231;42.782;23.388;2023-04-01T17:11:00;94434.38;;;10.02;100.00
19590;BME280;12231;42.782;23.388;2023-04-01T17:13:47;94442.94;;;9.92;100.00
19590;BME280;12231;42.782;23.388;2023-04-01T17:16:45;94461.72;;;9.59;100.00
19590;BME280;12231;42.782;23.388;2023-04-01T17:22:27;94480.66;;;9.00;100.00
19590;BME280;12231;42.782;23.388;2023-04-01T17:27:47;94482.56;;;8.85;100.00
19590;BME280;12231;42.782;23.388;2023-04-01T17:30:18;94480.03;;;8.73;100.00
19590;BME280;12231;42.782;23.388;2023-04-01T17:35:48;94490.66;;;8.56;100.00
19590;BME280;12231;42.782;23.388;2023-04-01T17:38:19;94488.47;;;8.62;100.00
19590;BME280;12231;42.782;23.388;2023-04-01T17:43:55;94486.75;;;8.63;100.00
19590;BME280;12231;42.782;23.388;2023-04-01T17:51:55;94491.63;;;8.29;100.00
19590;BME280;12231;42.782;23.388;2023-04-01T17:54:41;94495.03;;;8.30;100.00
19590;BME280;12231;42.782;23.388;2023-04-01T18:03:04;94509.28;;;8.09;100.00
19590;BME280;12231;42.782;23.388;2023-04-01T18:06:04;94512.16;;;8.17;100.00
19590;BME280;12231;42.782;23.388;2023-04-01T18:20:07;94534.56;;;8.27;100.00
19590;BME280;12231;42.782;23.388;2023-04-01T18:25:16;94536.31;;;8.14;100.00
19590;BME280;12231;42.782;23.388;2023-04-01T18:27:47;94523.69;;;8.11;100.00
19590;BME280;12231;42.782;23.388;2023-04-01T18:30:39;94534.53;;;8.02;100.00
19590;BME280;12231;42.782;23.388;2023-04-01T18:36:13;94546.63;;;8.00;100.00
19590;BME280;12231;42.782;23.388;2023-04-01T18:38:48;94549.41;;;8.10;100.00
19590;BME280;12231;42.782;23.388;2023-04-01T18:41:20;94557.03;;;8.11;100.00
19590;BME280;12231;42.782;23.388;2023-04-01T18:44:03;94561.75;;;8.17;100.00
19590;BME280;12231;42.782;23.388;2023-04-01T18:49:44;94582.78;;;8.22;100.00
19590;BME280;12231;42.782;23.388;2023-04-01T18:52:23;94578.00;;;8.30;100.00
19590;BME280;12231;42.782;23.388;2023-04-01T18:57:26;94588.56;;;8.39;100.00
19590;BME280;12231;42.782;23.388;2023-04-01T19:00:04;94577.13;;;9.98;100.00
19590;BME280;12231;42.782;23.388;2023-04-01T19:02:38;94580.13;;;9.34;100.00
19590;BME280;12231;42.782;23.388;2023-04-01T19:05:12;94597.03;;;8.77;100.00
19590;BME280;12231;42.782;23.388;2023-04-01T19:10:40;94596.03;;;8.79;100.00
19590;BME280;12231;42.782;23.388;2023-04-01T19:21:16;94611.16;;;8.33;100.00
19590;BME280;12231;42.782;23.388;2023-04-01T19:26:52;94616.16;;;8.22;100.00
19590;BME280;12231;42.782;23.388;2023-04-01T19:38:13;94631.59;;;8.48;100.00
19590;BME280;12231;42.782;23.388;2023-04-01T19:47:06;94644.63;;;8.57;100.00
19590;BME280;12231;42.782;23.388;2023-04-01T19:50:27;94643.59;;;8.34;100.00
19590;BME280;12231;42.782;23.388;2023-04-01T19:52:45;94635.50;;;8.53;100.00
19590;BME280;12231;42.782;23.388;2023-04-01T19:55:36;94638.69;;;8.57;100.00
19590;BME280;12231;42.782;23.388;2023-04-01T19:58:06;94642.47;;;8.64;100.00
19590;BME280;12231;42.782;23.388;2023-04-01T20:00:40;94645.66;;;8.55;100.00
19590;BME280;12231;42.782;23.388;2023-04-01T20:09:00;94643.66;;;11.27;100.00
19590;BME280;12231;42.782;23.388;2023-04-01T20:17:47;94657.47;;;9.91;100.00
19590;BME280;12231;42.782;23.388;2023-04-01T20:27:45;94664.53;;;9.16;100.00
19590;BME280;12231;42.782;23.388;2023-04-01T20:36:31;94663.44;;;8.83;100.00
19590;BME280;12231;42.782;23.388;2023-04-01T20:46:56;94676.19;;;8.84;100.00
19590;BME280;12231;42.782;23.388;2023-04-01T20:57:27;94675.56;;;8.81;100.00
19590;BME280;12231;42.782;23.388;2023-04-01T21:05:48;94671.34;;;8.67;100.00
19590;BME280;12231;42.782;23.388;2023-04-01T21:22:23;94706.88;;;8.48;100.00
19590;BME280;12231;42.782;23.388;2023-04-01T21:35:39;94711.91;;;8.62;100.00
19590;BME280;12231;42.782;23.388;2023-04-01T21:41:11;94705.66;;;8.66;100.00
19590;BME280;12231;42.782;23.388;2023-04-01T21:44:01;94709.56;;;8.72;100.00
19590;BME280;12231;42.782;23.388;2023-04-01T21:52:21;94693.41;;;8.32;100.00
19590;BME280;12231;42.782;23.388;2023-04-01T22:12:14;94693.53;;;8.16;100.00
19590;BME280;12231;42.782;23.388;2023-04-01T22:28:37;94698.78;;;8.15;100.00
19590;BME280;12231;42.782;23.388;2023-04-01T22:31:02;94702.16;;;8.03;100.00
19590;BME280;12231;42.782;23.388;2023-04-01T22:42:00;94684.66;;;7.42;100.00
19590;BME280;12231;42.782;23.388;2023-04-01T22:47:21;94694.66;;;7.33;100.00
19590;BME280;12231;42.782;23.388;2023-04-01T22:49:57;94687.06;;;7.31;100.00
19590;BME280;12231;42.782;23.388;2023-04-01T22:52:32;94681.31;;;7.28;100.00
19590;BME280;12231;42.782;23.388;2023-04-01T22:55:17;94679.03;;;7.23;100.00
19590;BME280;12231;42.782;23.388;2023-04-01T22:57:52;94689.19;;;7.25;100.00
19590;BME280;12231;42.782;23.388;2023-04-01T23:00:23;94696.41;;;7.32;100.00
19590;BME280;12231;42.782;23.388;2023-04-01T23:05:18;94697.06;;;7.22;100.00
19590;BME280;12231;42.782;23.388;2023-04-01T23:11:07;94705.66;;;7.21;100.00
19590;BME280;12231;42.782;23.388;2023-04-01T23:13:19;94709.97;;;7.20;100.00
19590;BME280;12231;42.782;23.388;2023-04-01T23:15:46;94720.22;;;7.20;100.00
19590;BME280;12231;42.782;23.388;2023-04-01T23:18:22;94720.22;;;7.20;100.00
19590;BME280;12231;42.782;23.388;2023-04-01T23:23:42;94711.06;;;7.16;100.00
19590;BME280;12231;42.782;23.388;2023-04-01T23:26:30;94708.59;;;7.15;100.00
19590;BME280;12231;42.782;23.388;2023-04-01T23:28:58;94701.63;;;7.03;100.00
19590;BME280;12231;42.782;23.388;2023-04-01T23:31:36;94708.16;;;6.94;100.00
19590;BME280;12231;42.782;23.388;2023-04-01T23:36:43;94722.06;;;6.76;100.00